Time;durP1;ratioP1;P1;durP2;ratioP2;P2;SDS_P1;SDS_P2;PMS_P1;PMS_P2;Temp;Humidity;BMP_temperature;BMP_pressure;BME280_temperature;BME280_humidity;BME280_pressure;Samples;Min_cycle;Max_cycle;Signal;HPM_P1;HPM_P2
2023/05/06 00:00:05;;;;;;;31.92;26.98;;;333.20;2329.60;;;;;;5047483;28;20090;-60
2023/05/06 00:02:31;;;;;;;21.92;18.23;;;333.10;2329.60;;;;;;5048068;28;20025;-61
2023/05/06 00:04:56;;;;;;;30.45;24.60;;;333.20;2329.60;;;;;;5047534;28;20024;-62
2023/05/06 00:07:22;;;;;;;21.83;18.67;;;333.10;2329.60;;;;;;5047812;28;20509;-61
2023/05/06 00:09:48;;;;;;;27.08;23.15;;;333.00;2329.60;;;;;;5047270;28;20029;-61
2023/05/06 00:12:14;;;;;;;19.90;17.75;;;332.90;2329.60;;;;;;5047710;28;20036;-60
2023/05/06 00:14:40;;;;;;;19.92;17.50;;;332.90;2329.60;;;;;;5034394;28;20066;-61
2023/05/06 00:17:05;;;;;;;29.00;23.40;;;332.90;2329.60;;;;;;5047716;28;20021;-60
2023/05/06 00:19:32;;;;;;;20.02;17.90;;;332.90;2329.60;;;;;;5046943;28;20025;-61
2023/05/06 00:21:58;;;;;;;19.35;16.95;;;332.80;2329.60;;;;;;5047394;28;20041;-61
2023/05/06 00:24:24;;;;;;;26.83;19.85;;;;;;;;;;5047309;28;20013;-61
2023/05/06 00:26:50;;;;;;;46.67;30.10;;;;;;;;;;5047164;28;20403;-61
2023/05/06 00:29:16;;;;;;;50.90;32.97;;;;;;;;;;5047391;28;20024;-61
2023/05/06 00:31:44;;;;;;;44.92;30.33;;;;;;;;;;5047570;28;20032;-61
2023/05/06 00:34:10;;;;;;;29.60;21.63;;;;;;;;;;5046990;28;20374;-61
2023/05/06 00:36:36;;;;;;;21.88;16.65;;;;;;;;;;5047038;28;20021;-61
2023/05/06 00:39:02;;;;;;;18.73;15.63;;;;;;;;;;5047101;28;20024;-61
2023/05/06 00:41:32;;;;;;;33.67;27.35;;;;;;;;;;5047434;28;20021;-61
2023/05/06 00:43:58;;;;;;;27.13;21.52;;;;;;;;;;5041486;28;20435;-62
2023/05/06 00:46:24;;;;;;;20.38;16.95;;;;;;;;;;5039969;28;20044;-61
2023/05/06 00:48:51;;;;;;;19.63;16.95;;;;;;;;;;5047146;28;20017;-61
2023/05/06 00:51:17;;;;;;;20.17;15.52;;;;;;;;;;5047375;28;20143;-61
2023/05/06 00:53:45;;;;;;;20.40;16.27;;;;;;;;;;5047661;28;20468;-61
2023/05/06 00:56:11;;;;;;;16.95;15.25;;;;;;;;;;5051185;28;20053;-61
2023/05/06 00:58:37;;;;;;;21.15;16.70;;;;;;;;;;5051553;28;20028;-62
2023/05/06 01:01:04;;;;;;;17.65;15.43;;;;;;;;;;5044227;28;20091;-61
2023/05/06 01:03:30;;;;;;;25.80;20.35;;;;;;;;;;5044128;28;20021;-61
2023/05/06 01:06:06;;;;;;;18.95;14.90;;;;;;;;;;5050973;28;20025;-61
2023/05/06 01:08:41;;;;;;;20.17;15.82;;;;;;;;;;5053160;28;20356;-61
2023/05/06 01:11:20;;;;;;;16.23;14.40;;;;;;;;;;5043942;28;20026;-61
2023/05/06 01:13:48;;;;;;;21.42;15.65;;;;;;;;;;5036870;28;20025;-61
2023/05/06 01:16:15;;;;;;;17.23;14.95;;;;;;;;;;5052667;28;20535;-61
2023/05/06 01:18:42;;;;;;;18.30;15.27;;;;;;;;;;5052085;28;20032;-61
2023/05/06 01:21:09;;;;;;;19.20;16.38;;;;;;;;;;5051814;28;20116;-61
2023/05/06 01:23:54;;;;;;;21.65;16.80;;;;;;;;;;5034734;28;20392;-60
2023/05/06 01:26:21;;;;;;;29.75;16.83;;;;;;;;;;5039632;28;20578;-61
2023/05/06 01:28:47;;;;;;;52.20;30.65;;;;;;;;;;5052705;28;20106;-61
2023/05/06 01:31:16;;;;;;;24.50;16.45;;;;;;;;;;5051903;28;20128;-63
2023/05/06 01:34:01;;;;;;;21.95;17.92;;;;;;;;;;5051769;28;20051;-63
2023/05/06 01:36:27;;;;;;;21.30;18.67;;;;;;;;;;5052231;28;20508;-62
2023/05/06 01:39:12;;;;;;;17.52;15.52;;;;;;;;;;5051887;28;20025;-61
2023/05/06 01:41:39;;;;;;;18.50;14.85;;;;;;;;;;5052085;28;20032;-63
2023/05/06 01:44:06;;;;;;;16.75;13.55;;;;;;;;;;5051616;28;20109;-62
2023/05/06 01:46:32;;;;;;;18.40;13.80;;;;;;;;;;5051485;28;20037;-61
2023/05/06 01:49:00;;;;;;;18.38;13.40;;;;;;;;;;5052130;28;20375;-62
2023/05/06 01:51:26;;;;;;;19.60;15.30;;;;;;;;;;5051709;28;20490;-63
2023/05/06 01:53:53;;;;;;;17.90;14.38;;;;;;;;;;5051902;28;20112;-62
2023/05/06 01:56:19;;;;;;;14.90;13.13;;;;;;;;;;5051446;28;20078;-61
2023/05/06 01:58:45;;;;;;;19.88;13.82;;;;;;;;;;5051898;28;20375;-61
2023/05/06 02:01:11;;;;;;;17.25;13.75;;;;;;;;;;5051056;28;20025;-61
2023/05/06 02:03:37;;;;;;;22.63;16.90;;;;;;;;;;5051858;28;20029;-61
2023/05/06 02:06:03;;;;;;;30.60;14.80;;;;;;;;;;5050224;28;20037;-61
2023/05/06 02:08:29;;;;;;;20.63;14.30;;;;;;;;;;5051996;28;20017;-61
2023/05/06 02:10:55;;;;;;;15.77;13.05;;;;;;;;;;5051057;28;20021;-62
2023/05/06 02:13:21;;;;;;;15.45;13.32;;;;;;;;;;5051512;28;20033;-63
2023/05/06 02:15:52;;;;;;;20.48;16.13;;;;;;;;;;5050914;28;20117;-64
2023/05/06 02:18:18;;;;;;;15.73;13.80;;;;;;;;;;5044182;28;20064;-61
2023/05/06 02:20:44;;;;;;;16.88;12.93;;;;;;;;;;5045230;28;20387;-62
2023/05/06 02:23:10;;;;;;;13.98;12.50;;;;;;;;;;5051299;28;20491;-63
2023/05/06 02:25:36;;;;;;;15.93;13.10;;;;;;;;;;5051289;28;20487;-61
2023/05/06 02:28:02;;;;;;;14.35;12.50;;;;;;;;;;5051101;28;20031;-62
2023/05/06 02:30:31;;;;;;;15.02;13.43;;;;;;;;;;5050594;28;20090;-61
2023/05/06 02:32:57;;;;;;;16.55;12.55;;;;;;;;;;5050943;28;20686;-61
2023/05/06 02:35:24;;;;;;;12.45;11.07;;;;;;;;;;5050348;28;20124;-61
2023/05/06 02:37:50;;;;;;;13.90;11.32;;;;;;;;;;5051205;28;20568;-61
2023/05/06 02:40:16;;;;;;;17.83;13.20;;;;;;;;;;5051033;28;20421;-61
2023/05/06 02:42:42;;;;;;;15.27;13.27;;;;;;;;;;5050825;28;20474;-63
2023/05/06 02:45:08;;;;;;;14.38;12.32;;;;;;;;;;5050157;28;20395;-63
2023/05/06 02:47:34;;;;;;;14.80;12.20;;;;;;;;;;5051006;28;20025;-60
2023/05/06 02:50:00;;;;;;;14.63;11.43;;;;;;;;;;5050211;28;20073;-62
2023/05/06 02:52:26;;;;;;;15.65;13.30;;;;;;;;;;5050484;28;20540;-61
2023/05/06 02:54:52;;;;;;;16.20;12.65;;;;;;;;;;5050362;28;20075;-61
2023/05/06 02:57:18;;;;;;;15.05;12.10;;;;;;;;;;5050680;28;20356;-61
2023/05/06 02:59:44;;;;;;;17.75;12.95;;;;;;;;;;5036408;28;20033;-61
2023/05/06 03:02:10;;;;;;;14.40;12.15;;;;;;;;;;5050322;28;20017;-62
2023/05/06 03:04:36;;;;;;;16.33;12.60;;;;;;;;;;5050289;28;20053;-61
2023/05/06 03:07:02;;;;;;;15.10;12.15;;;;;;;;;;5050263;28;20032;-61
2023/05/06 03:09:28;;;;;;;16.13;12.30;;;;;;;;;;5049847;28;20028;-62
2023/05/06 03:11:56;;;;;;;12.95;10.90;;;;;;;;;;5050039;28;20028;-62
2023/05/06 03:14:22;;;;;;;19.90;12.32;;;;;;;;;;5050102;28;20490;-62
2023/05/06 03:16:48;;;;;;;15.07;11.80;;;;;;;;;;5049440;28;20025;-61
2023/05/06 03:19:14;;;;;;;16.73;12.88;;;;;;;;;;5049717;28;20025;-61
2023/05/06 03:21:40;;;;;;;13.75;12.05;;;;;;;;;;5050142;28;20021;-62
2023/05/06 03:24:06;;;;;;;14.50;12.30;;;;;;;;;;5034869;28;20091;-61
2023/05/06 03:26:32;;;;;;;15.82;12.30;;;;;;;;;;5039234;28;20116;-61
2023/05/06 03:28:58;;;;;;;15.73;13.07;;;;;;;;;;5049878;28;20147;-61
2023/05/06 03:31:24;;;;;;;15.98;13.07;;;;;;;;;;5049839;28;20025;-61
2023/05/06 03:33:50;;;;;;;14.10;12.07;;;;;;;;;;5049821;28;20025;-61
2023/05/06 03:36:16;;;;;;;14.00;11.23;;;307.30;2304.00;;;;;;5049810;28;20025;-64
2023/05/06 03:38:42;;;;;;;14.80;12.57;;;307.20;2304.00;;;;;;5049877;28;20040;-61
2023/05/06 03:41:07;;;;;;;14.32;11.40;;;282.50;2278.40;;;;;;5050274;28;20486;-61
2023/05/06 03:43:33;;;;;;;19.08;12.27;;;307.20;2304.00;;;;;;5049523;28;20029;-61
2023/05/06 03:45:59;;;;;;;15.45;12.57;;;307.30;2304.00;;;;;;5049445;28;20086;-61
2023/05/06 03:48:24;;;;;;;14.82;12.32;;;307.30;2304.00;;;;;;5049316;28;20028;-60
2023/05/06 03:50:50;;;;;;;15.70;13.63;;;307.30;2304.00;;;;;;5049419;28;20029;-62
2023/05/06 03:53:16;;;;;;;16.67;12.40;;;307.40;2304.00;;;;;;5049901;28;20029;-61
2023/05/06 03:55:42;;;;;;;16.08;11.55;;;307.50;2304.00;;;;;;5049255;28;20059;-60
2023/05/06 03:58:08;;;;;;;14.80;11.65;;;307.60;2304.00;;;;;;5049586;28;20025;-60
2023/05/06 04:00:33;;;;;;;15.73;12.60;;;307.90;2304.00;;;;;;5049455;28;20074;-62
2023/05/06 04:02:59;;;;;;;13.00;11.55;;;307.80;2304.00;;;;;;5048935;28;20470;-62
2023/05/06 04:05:25;;;;;;;15.68;11.27;;;307.70;2304.00;;;;;;5049366;28;20040;-61
2023/05/06 04:07:51;;;;;;;13.60;11.95;;;307.70;2304.00;;;;;;5049340;28;20489;-64
2023/05/06 04:10:16;;;;;;;14.70;11.75;;;307.70;2304.00;;;;;;5049612;28;20083;-63
2023/05/06 04:12:42;;;;;;;17.73;12.70;;;307.80;2304.00;;;;;;5048942;28;20467;-61
2023/05/06 04:15:09;;;;;;;15.60;13.77;;;307.90;2304.00;;;;;;5048919;28;20123;-62
2023/05/06 04:17:34;;;;;;;15.73;12.13;;;308.00;2304.00;;;;;;5049155;28;20100;-61
2023/05/06 04:20:05;;;;;;;14.65;11.80;;;308.10;2304.00;;;;;;5048669;28;20432;-63
2023/05/06 04:22:31;;;;;;;13.63;11.68;;;308.10;2304.00;;;;;;5048859;28;20056;-65
2023/05/06 04:24:59;;;;;;;14.30;11.75;;;332.90;2329.60;;;;;;5049022;28;20059;-63
2023/05/06 04:27:28;;;;;;;14.50;11.98;;;333.00;2329.60;;;;;;5048780;28;20029;-61
2023/05/06 04:29:54;;;;;;;17.65;11.88;;;333.10;2329.60;;;;;;5048543;28;20036;-62
2023/05/06 04:32:24;;;;;;;15.60;11.07;;;333.20;2329.60;;;;;;5048948;28;20100;-61
2023/05/06 04:34:50;;;;;;;13.52;10.85;;;333.30;2329.60;;;;;;5049101;28;20060;-61
2023/05/06 04:37:18;;;;;;;13.88;11.27;;;;;;;;;;5049080;28;20096;-63
2023/05/06 04:39:47;;;;;;;13.70;10.50;;;;;;;;;;5048914;28;20479;-61
2023/05/06 04:42:13;;;;;;;12.52;11.23;;;358.40;2329.60;;;;;;5048676;28;20418;-61
2023/05/06 04:44:40;;;;;;;12.90;10.40;;;358.40;2329.60;;;;;;5048624;28;20021;-61
2023/05/06 04:47:06;;;;;;;12.35;9.90;;;358.60;2329.60;;;;;;5043644;28;20021;-61
2023/05/06 04:49:31;;;;;;;14.52;11.32;;;358.80;2329.60;;;;;;5041208;28;20162;-62
2023/05/06 04:51:57;;;;;;;15.23;11.07;;;384.40;2329.60;;;;;;5048711;28;20032;-61
2023/05/06 04:54:23;;;;;;;15.77;11.55;;;461.50;2380.80;;;;;;5048917;28;20032;-62
2023/05/06 04:56:48;;;;;;;13.52;9.98;;;538.00;2176.00;;;;;;5048688;28;20032;-63
2023/05/06 04:59:14;;;;;;;8.88;7.93;;;640.10;1740.80;;;;;;5048705;28;20048;-62
2023/05/06 05:01:40;;;;;;;9.23;8.23;;;665.60;1664.00;;;;;;5048500;28;20478;-62
2023/05/06 05:04:06;;;;;;;9.52;8.57;;;666.50;1587.20;;;;;;5048716;28;20021;-63
2023/05/06 05:06:31;;;;;;;10.20;9.15;;;716.80;1536.00;;;;;;5048199;28;20033;-62
2023/05/06 05:08:58;;;;;;;7.03;6.32;;;716.80;1484.80;;;;;;5048890;28;20022;-62
2023/05/06 05:11:23;;;;;;;8.85;8.02;;;717.40;1484.80;;;;;;5048663;28;20021;-64
2023/05/06 05:13:50;;;;;;;9.65;8.45;;;743.00;1433.60;;;;;;5048483;28;20025;-63
2023/05/06 05:16:15;;;;;;;13.88;9.20;;;717.40;1459.20;;;;;;5048620;28;20112;-64
2023/05/06 05:18:41;;;;;;;8.23;7.43;;;691.70;1510.40;;;;;;5048313;28;20449;-62
2023/05/06 05:21:07;;;;;;;12.13;8.20;;;666.00;1561.60;;;;;;5048240;28;20116;-62
2023/05/06 05:23:33;;;;;;;8.82;7.50;;;640.00;1612.80;;;;;;5048104;28;20025;-60
2023/05/06 05:25:58;;;;;;;10.15;9.15;;;640.70;1612.80;;;;;;5047973;28;20033;-61
2023/05/06 05:28:24;;;;;;;8.88;7.97;;;691.30;1536.00;;;;;;5048646;28;20104;-61
2023/05/06 05:30:50;;;;;;;8.95;8.05;;;716.80;1510.40;;;;;;5048423;28;20032;-63
2023/05/06 05:33:15;;;;;;;11.80;8.55;;;716.90;1484.80;;;;;;5048142;28;20017;-61
2023/05/06 05:35:41;;;;;;;8.48;7.57;;;692.10;1484.80;;;;;;5033289;28;20232;-62
2023/05/06 05:38:08;;;;;;;10.48;9.48;;;742.60;1459.20;;;;;;5045901;28;20013;-61
2023/05/06 05:40:35;;;;;;;9.27;8.35;;;768.90;1382.40;;;;;;5048291;28;20410;-61
2023/05/06 05:43:01;;;;;;;10.90;9.05;;;794.40;1356.80;;;;;;5049851;28;20029;-62
2023/05/06 05:45:27;;;;;;;12.20;11.15;;;870.40;1280.00;;;;;;5050201;28;20514;-63
2023/05/06 05:47:53;;;;;;;14.55;11.63;;;921.80;1177.60;;;;;;5048353;28;20029;-65
2023/05/06 05:50:19;;;;;;;19.73;17.90;;;922.30;1152.00;;;;;;5029115;28;20033;-63
2023/05/06 05:52:45;;;;;;;13.65;12.45;;;947.80;1126.40;;;;;;5046345;28;20083;-64
2023/05/06 05:55:11;;;;;;;10.63;9.73;;;947.90;1126.40;;;;;;5031986;28;20136;-64
2023/05/06 05:57:36;;;;;;;9.65;8.93;;;972.90;1126.40;;;;;;5030156;28;20040;-63
2023/05/06 06:00:03;;;;;;;10.23;9.32;;;972.90;1126.40;;;;;;5042939;28;20029;-63
2023/05/06 06:02:30;;;;;;;10.20;9.30;;;948.00;1100.80;;;;;;5043280;28;20040;-64
2023/05/06 06:04:56;;;;;;;9.50;8.45;;;998.50;1075.20;;;;;;5050199;28;20025;-62
2023/05/06 06:07:21;;;;;;;9.00;8.30;;;1024.30;1049.60;;;;;;5049765;28;20052;-63
2023/05/06 06:09:47;;;;;;;9.80;8.80;;;1024.20;1024.00;;;;;;5049972;28;20526;-63
2023/05/06 06:12:13;;;;;;;9.82;8.93;;;1024.30;1024.00;;;;;;5049858;28;20040;-64
2023/05/06 06:14:39;;;;;;;10.13;9.10;;;1024.60;998.40;;;;;;5049767;28;20040;-64
2023/05/06 06:17:05;;;;;;;10.82;9.80;;;1024.90;998.40;;;;;;5044269;28;20029;-62
2023/05/06 06:19:31;;;;;;;10.05;9.07;;;1024.20;998.40;;;;;;5033865;28;20033;-63
2023/05/06 06:21:57;;;;;;;10.35;9.55;;;1049.60;998.40;;;;;;5030011;28;20030;-66
2023/05/06 06:24:23;;;;;;;11.55;10.65;;;1024.70;998.40;;;;;;5042820;28;20021;-62
2023/05/06 06:26:49;;;;;;;12.32;10.15;;;1050.20;998.40;;;;;;5029894;28;20038;-63
2023/05/06 06:29:14;;;;;;;10.57;9.77;;;1049.80;998.40;;;;;;5028830;28;20028;-63
2023/05/06 06:31:40;;;;;;;12.73;11.55;;;1050.20;998.40;;;;;;5027364;28;20033;-69
2023/05/06 06:34:07;;;;;;;12.43;11.50;;;1076.10;947.20;;;;;;5028317;28;20025;-64
2023/05/06 06:36:33;;;;;;;11.82;10.75;;;1101.10;947.20;;;;;;5029616;28;20037;-65
2023/05/06 06:38:59;;;;;;;11.10;10.20;;;1126.40;947.20;;;;;;5049164;28;20017;-64
2023/05/06 06:41:26;;;;;;;10.43;9.73;;;1152.00;896.00;;;;;;5049558;28;20033;-64
2023/05/06 06:43:51;;;;;;;11.35;10.55;;;1126.90;921.60;;;;;;5049679;28;20021;-63
2023/05/06 06:46:17;;;;;;;11.45;10.20;;;1152.40;870.40;;;;;;5034929;28;20037;-63
2023/05/06 06:48:43;;;;;;;12.25;11.30;;;1075.40;921.60;;;;;;5048969;28;20029;-64
2023/05/06 06:51:08;;;;;;;12.20;11.20;;;999.30;998.40;;;;;;5045688;28;20574;-64
2023/05/06 06:53:34;;;;;;;10.73;9.88;;;1101.20;921.60;;;;;;5028002;28;20034;-64
2023/05/06 06:56:00;;;;;;;12.35;11.15;;;1126.60;896.00;;;;;;5028449;28;20052;-67
2023/05/06 06:58:26;;;;;;;14.30;13.20;;;1126.90;896.00;;;;;;5033935;28;20049;-65
2023/05/06 07:00:51;;;;;;;12.63;11.73;;;1152.40;870.40;;;;;;5028801;28;20108;-64
2023/05/06 07:03:18;;;;;;;11.65;10.63;;;1050.50;947.20;;;;;;5028871;28;20026;-65
2023/05/06 07:05:44;;;;;;;12.98;11.90;;;1024.10;947.20;;;;;;5028786;28;20044;-64
2023/05/06 07:08:10;;;;;;;14.88;13.65;;;1050.30;947.20;;;;;;5028767;28;20487;-63
2023/05/06 07:10:36;;;;;;;14.43;13.27;;;1100.80;947.20;;;;;;5029215;28;20064;-63
2023/05/06 07:13:02;;;;;;;13.00;11.82;;;999.20;972.80;;;;;;5033585;28;20030;-63
2023/05/06 07:15:28;;;;;;;14.55;13.07;;;1050.00;947.20;;;;;;5034792;28;20029;-63
2023/05/06 07:17:53;;;;;;;12.02;10.82;;;998.80;972.80;;;;;;5049066;28;20106;-63
2023/05/06 07:20:20;;;;;;;12.88;11.73;;;1075.70;921.60;;;;;;5034852;28;20018;-64
2023/05/06 07:22:45;;;;;;;16.33;14.60;;;999.30;972.80;;;;;;5029726;28;20061;-63
2023/05/06 07:25:11;;;;;;;13.55;12.60;;;1024.50;972.80;;;;;;5029326;28;20057;-64
2023/05/06 07:27:37;;;;;;;13.70;12.73;;;1075.60;921.60;;;;;;5043434;28;20029;-64
2023/05/06 07:30:03;;;;;;;13.65;12.23;;;1024.20;972.80;;;;;;5048463;28;20033;-65
2023/05/06 07:32:28;;;;;;;13.52;12.38;;;973.40;998.40;;;;;;5048383;28;20748;-63
2023/05/06 07:34:54;;;;;;;12.18;10.82;;;999.20;998.40;;;;;;5048327;28;20109;-65
2023/05/06 07:37:20;;;;;;;12.25;11.35;;;1050.10;972.80;;;;;;5047940;28;20035;-63
2023/05/06 07:39:45;;;;;;;10.95;9.10;;;1049.90;972.80;;;;;;5048098;28;20025;-62
2023/05/06 07:42:11;;;;;;;13.45;11.65;;;947.40;1024.00;;;;;;5029267;28;20036;-63
2023/05/06 07:44:38;;;;;;;13.10;11.95;;;922.00;1100.80;;;;;;5028064;28;20021;-63
2023/05/06 07:47:03;;;;;;;11.57;10.65;;;973.30;1024.00;;;;;;5038102;28;20540;-64
2023/05/06 07:49:32;;;;;;;11.27;10.38;;;998.80;998.40;;;;;;5036191;28;20041;-64
2023/05/06 07:51:57;;;;;;;12.18;11.07;;;973.60;1024.00;;;;;;5046055;28;20021;-65
2023/05/06 07:54:23;;;;;;;13.18;11.85;;;1024.50;972.80;;;;;;5047502;28;20018;-63
2023/05/06 07:56:49;;;;;;;12.80;11.90;;;1049.90;972.80;;;;;;5047728;28;20467;-69
2023/05/06 07:59:15;;;;;;;12.60;11.38;;;1024.60;972.80;;;;;;5047951;28;20432;-64
2023/05/06 08:01:40;;;;;;;12.73;11.75;;;1101.10;947.20;;;;;;5047823;28;20024;-67
2023/05/06 08:04:06;;;;;;;12.23;11.18;;;1024.50;998.40;;;;;;5047310;28;20108;-63
2023/05/06 08:06:32;;;;;;;13.43;12.32;;;1050.40;972.80;;;;;;5043008;28;20125;-63
2023/05/06 08:08:58;;;;;;;12.68;11.57;;;1024.60;998.40;;;;;;5038803;28;20029;-66
2023/05/06 08:11:24;;;;;;;13.60;12.18;;;1024.60;998.40;;;;;;5047391;28;20025;-63
2023/05/06 08:13:49;;;;;;;13.02;11.95;;;1024.90;998.40;;;;;;5042240;28;20505;-65
2023/05/06 08:16:15;;;;;;;11.45;10.55;;;999.30;1024.00;;;;;;5019697;28;20029;-64
2023/05/06 08:18:41;;;;;;;14.07;12.27;;;1024.90;998.40;;;;;;5027640;28;20091;-64
2023/05/06 08:21:06;;;;;;;13.48;12.18;;;1049.60;998.40;;;;;;5034453;28;20029;-65
2023/05/06 08:23:32;;;;;;;12.93;11.93;;;1024.10;998.40;;;;;;5041115;28;20021;-65
2023/05/06 08:25:58;;;;;;;12.27;11.07;;;947.70;1075.20;;;;;;5047575;28;20048;-65
2023/05/06 08:28:24;;;;;;;12.80;9.60;;;870.60;1177.60;;;;;;5047479;28;20467;-64
2023/05/06 08:30:51;;;;;;;10.88;9.30;;;793.80;1331.20;;;;;;5027343;28;20148;-64
2023/05/06 08:33:17;;;;;;;13.18;9.43;;;768.10;1356.80;;;;;;5032419;28;20475;-65
2023/05/06 08:35:44;;;;;;;10.23;9.20;;;742.60;1408.00;;;;;;5047925;28;20053;-64
2023/05/06 08:38:10;;;;;;;10.60;6.15;;;743.10;1356.80;;;;;;5049672;28;20055;-63
2023/05/06 08:40:42;;;;;;;9.32;5.68;;;743.10;1305.60;;;;;;5049318;28;20149;-63
2023/05/06 08:43:13;;;;;;;9.02;6.35;;;742.80;1305.60;;;;;;5034804;28;20526;-63
2023/05/06 08:45:40;;;;;;;8.90;6.35;;;742.40;1331.20;;;;;;5042243;28;20106;-63
2023/05/06 08:48:06;;;;;;;9.65;6.95;;;717.30;1331.20;;;;;;5039249;28;20402;-63
2023/05/06 08:50:34;;;;;;;9.85;6.60;;;742.60;1356.80;;;;;;5027159;28;20033;-67
2023/05/06 08:53:01;;;;;;;9.50;6.85;;;742.90;1305.60;;;;;;5037640;28;20065;-63
2023/05/06 08:55:27;;;;;;;7.72;6.05;;;717.20;1331.20;;;;;;5048220;28;20045;-62
2023/05/06 08:57:55;;;;;;;7.50;6.75;;;742.50;1331.20;;;;;;5048442;28;20025;-63
2023/05/06 09:00:20;;;;;;;8.75;7.03;;;742.80;1331.20;;;;;;5037417;28;20079;-62
2023/05/06 09:02:46;;;;;;;7.57;6.95;;;742.90;1331.20;;;;;;5046776;28;20092;-62
2023/05/06 09:05:12;;;;;;;6.72;5.53;;;742.90;1331.20;;;;;;5048690;28;20492;-63
2023/05/06 09:07:38;;;;;;;9.02;6.45;;;743.10;1331.20;;;;;;5048786;28;20045;-63
2023/05/06 09:10:11;;;;;;;7.43;5.47;;;742.80;1331.20;;;;;;5046626;28;20123;-66
2023/05/06 09:12:38;;;;;;;6.10;5.45;;;742.60;1305.60;;;;;;5047570;28;20032;-62
2023/05/06 09:15:04;;;;;;;7.07;5.53;;;742.40;1305.60;;;;;;5048603;28;20142;-64
2023/05/06 09:17:31;;;;;;;5.70;5.20;;;717.70;1305.60;;;;;;5031812;28;20021;-64
2023/05/06 09:19:57;;;;;;;9.00;7.07;;;717.20;1305.60;;;;;;5043716;28;20498;-64
2023/05/06 09:22:25;;;;;;;6.18;4.65;;;717.70;1305.60;;;;;;5050130;28;20078;-62
2023/05/06 09:24:55;;;;;;;6.47;5.05;;;717.70;1356.80;;;;;;5050968;28;20048;-63
2023/05/06 09:27:26;;;;;;;6.90;5.55;;;717.40;1331.20;;;;;;5041045;28;20029;-63
2023/05/06 09:29:59;;;;;;;6.85;5.50;;;691.80;1331.20;;;;;;5047741;28;20558;-62
2023/05/06 09:32:25;;;;;;;6.03;5.35;;;691.30;1356.80;;;;;;5050778;28;20037;-63
2023/05/06 09:34:50;;;;;;;6.13;5.53;;;692.00;1305.60;;;;;;5050427;28;20036;-64
2023/05/06 09:37:16;;;;;;;7.28;6.28;;;692.10;1305.60;;;;;;5045738;28;20487;-62
2023/05/06 09:39:42;;;;;;;6.63;5.93;;;691.30;1356.80;;;;;;5031899;28;20038;-65
2023/05/06 09:42:07;;;;;;;6.25;5.65;;;691.80;1331.20;;;;;;5041185;28;20047;-66
2023/05/06 09:44:33;;;;;;;8.25;5.47;;;691.90;1331.20;;;;;;5050204;28;20120;-62
2023/05/06 09:46:59;;;;;;;5.60;4.93;;;691.70;1356.80;;;;;;5050755;28;20037;-62
2023/05/06 09:49:25;;;;;;;5.72;5.13;;;692.00;1305.60;;;;;;5050122;28;20103;-65
2023/05/06 09:51:51;;;;;;;10.52;6.40;;;717.00;1356.80;;;;;;5050026;28;20041;-64
2023/05/06 09:54:18;;;;;;;5.85;4.72;;;691.80;1331.20;;;;;;5048460;28;20431;-66
2023/05/06 09:56:45;;;;;;;6.43;4.78;;;691.80;1331.20;;;;;;5050336;28;20037;-64
2023/05/06 09:59:12;;;;;;;5.97;4.72;;;691.60;1331.20;;;;;;5050103;28;20028;-64
2023/05/06 10:01:38;;;;;;;6.95;5.28;;;691.40;1331.20;;;;;;5049924;28;20013;-64
2023/05/06 10:04:08;;;;;;;8.57;5.63;;;666.40;1356.80;;;;;;5050023;28;20074;-66
2023/05/06 10:06:35;;;;;;;7.00;4.70;;;691.50;1356.80;;;;;;5049515;28;20605;-62
2023/05/06 10:09:01;;;;;;;5.20;4.70;;;691.80;1356.80;;;;;;5049319;28;20033;-64
2023/05/06 10:11:30;;;;;;;5.50;4.15;;;692.10;1408.00;;;;;;5049159;28;20083;-63
2023/05/06 10:13:56;;;;;;;5.20;4.43;;;692.10;1382.40;;;;;;5049162;28;20079;-67
2023/05/06 10:16:22;;;;;;;6.07;4.43;;;716.80;1408.00;;;;;;5048745;28;20059;-63
2023/05/06 10:18:50;;;;;;;6.53;5.40;;;716.80;1433.60;;;;;;5049048;28;20119;-63
2023/05/06 10:21:23;;;;;;;7.32;4.40;;;692.10;1356.80;;;;;;5048928;28;20090;-64
2023/05/06 10:24:00;;;;;;;4.65;4.13;;;691.20;1331.20;;;;;;5049026;28;20033;-62
2023/05/06 10:26:28;;;;;;;5.45;4.40;;;691.20;1331.20;;;;;;5048594;28;20040;-64
2023/05/06 10:28:54;;;;;;;8.25;4.18;;;691.20;1331.20;;;;;;5049174;28;20037;-66
2023/05/06 10:31:20;;;;;;;4.85;3.55;;;691.50;1356.80;;;;;;5048742;28;20466;-63
2023/05/06 10:33:49;;;;;;;6.30;4.38;;;691.60;1305.60;;;;;;5049737;28;20028;-63
2023/05/06 10:36:22;;;;;;;5.30;3.75;;;691.60;1331.20;;;;;;5049377;28;20033;-63
2023/05/06 10:38:55;;;;;;;5.07;3.72;;;691.60;1305.60;;;;;;5049975;28;20036;-62
2023/05/06 10:41:26;;;;;;;5.18;3.92;;;691.40;1280.00;;;;;;5049099;28;20541;-69
2023/05/06 10:43:56;;;;;;;4.75;3.72;;;691.50;1331.20;;;;;;5049446;28;20029;-63
2023/05/06 10:46:27;;;;;;;8.02;4.13;;;691.50;1305.60;;;;;;5049105;28;20088;-65
2023/05/06 10:49:11;;;;;;;6.63;4.45;;;666.50;1305.60;;;;;;5049467;28;20133;-66
2023/05/06 10:51:40;;;;;;;8.10;4.82;;;666.50;1331.20;;;;;;5049193;28;20025;-64
2023/05/06 10:54:06;;;;;;;6.47;4.18;;;691.30;1305.60;;;;;;5041354;28;20022;-63
2023/05/06 10:56:39;;;;;;;6.20;4.47;;;666.00;1331.20;;;;;;5043039;28;20056;-62
2023/05/06 10:59:11;;;;;;;4.68;4.18;;;666.00;1305.60;;;;;;5048947;28;20029;-63
2023/05/06 11:02:01;;;;;;;6.77;4.80;;;665.60;1331.20;;;;;;5047700;28;20056;-63
2023/05/06 11:04:29;;;;;;;5.97;4.22;;;665.80;1331.20;;;;;;5030397;28;20255;-62
2023/05/06 11:07:10;;;;;;;6.90;4.30;;;665.90;1331.20;;;;;;5030797;28;20026;-63
2023/05/06 11:10:00;;;;;;;5.38;3.67;;;665.60;1331.20;;;;;;5030545;28;20029;-64
2023/05/06 11:12:48;;;;;;;4.25;3.42;;;665.90;1331.20;;;;;;5043884;28;20018;-62
2023/05/06 11:15:27;;;;;;;4.75;4.22;;;665.90;1331.20;;;;;;5044550;28;20459;-62
2023/05/06 11:17:54;;;;;;;4.72;3.80;;;666.00;1331.20;;;;;;5050265;28;20035;-61
2023/05/06 11:20:24;;;;;;;4.60;3.90;;;666.00;1305.60;;;;;;5050019;28;20029;-63
2023/05/06 11:22:51;;;;;;;5.28;4.43;;;665.90;1331.20;;;;;;5050437;28;20064;-62
2023/05/06 11:25:52;;;;;;;5.35;4.25;;;665.70;1305.60;;;;;;5038549;28;20368;-64
2023/05/06 11:28:19;;;;;;;13.98;4.07;;;666.00;1356.80;;;;;;4998506;28;20022;-62
2023/05/06 11:30:53;;;;;;;7.50;3.97;;;665.70;1305.60;;;;;;5008131;28;20502;-61
2023/05/06 11:33:22;;;;;;;3.95;3.45;;;640.90;1280.00;;;;;;5008000;28;20511;-62
2023/05/06 11:35:47;;;;;;;4.40;3.90;;;665.60;1331.20;;;;;;5007975;28;20034;-62
2023/05/06 11:38:13;;;;;;;8.95;4.55;;;665.60;1331.20;;;;;;4995678;28;20031;-62
2023/05/06 11:40:41;;;;;;;5.55;3.92;;;665.90;1305.60;;;;;;5005871;28;20022;-62
2023/05/06 11:43:14;;;;;;;10.90;4.30;;;666.10;1305.60;;;;;;5007632;28;20040;-61
2023/05/06 11:45:40;;;;;;;;;;;665.90;1280.00;;;;;;5007903;28;20177;-62
2023/05/06 11:48:05;;;;;;;4.45;3.63;;;665.90;1305.60;;;;;;5007871;28;19905;-62
2023/05/06 11:50:31;;;;;;;4.97;4.03;;;666.10;1305.60;;;;;;5007558;28;20084;-63
2023/05/06 11:52:57;;;;;;;4.97;3.90;;;666.00;1305.60;;;;;;5007846;28;20191;-61
2023/05/06 11:55:23;;;;;;;4.32;3.72;;;666.00;1280.00;;;;;;5007261;28;20467;-62
2023/05/06 11:57:51;;;;;;;4.68;3.85;;;640.90;1254.40;;;;;;5007936;28;20018;-61
2023/05/06 12:00:17;;;;;;;13.00;3.88;;;665.90;1305.60;;;;;;5007517;28;20041;-62
2023/05/06 12:02:43;;;;;;;6.43;4.40;;;665.90;1280.00;;;;;;5010849;28;20536;-61
2023/05/06 12:05:09;;;;;;;4.38;3.97;;;666.10;1280.00;;;;;;5029028;28;20029;-61
2023/05/06 12:07:35;;;;;;;4.13;3.63;;;666.40;1331.20;;;;;;5029760;28;20025;-61
2023/05/06 12:10:03;;;;;;;7.05;4.03;;;666.40;1305.60;;;;;;5028932;28;20494;-62
2023/05/06 12:12:31;;;;;;;7.28;4.22;;;666.00;1305.60;;;;;;5029604;28;20040;-60
2023/05/06 12:14:57;;;;;;;4.95;4.32;;;665.90;1305.60;;;;;;5028929;28;20024;-61
2023/05/06 12:17:23;;;;;;;7.30;4.60;;;666.00;1305.60;;;;;;5029704;28;20025;-61
2023/05/06 12:19:49;;;;;;;4.32;3.92;;;666.20;1305.60;;;;;;5029315;28;20034;-61
2023/05/06 12:22:18;;;;;;;5.32;4.13;;;666.20;1305.60;;;;;;5029262;28;20478;-61
2023/05/06 12:24:44;;;;;;;4.93;4.15;;;666.10;1305.60;;;;;;5029165;28;20021;-62
2023/05/06 12:27:10;;;;;;;5.32;3.95;;;666.00;1305.60;;;;;;5028837;28;20108;-61
2023/05/06 12:29:35;;;;;;;13.63;4.43;;;666.20;1305.60;;;;;;5028844;28;20139;-61
2023/05/06 12:32:09;;;;;;;8.60;4.40;;;666.40;1331.20;;;;;;5028718;28;20037;-62
2023/05/06 12:34:39;;;;;;;5.93;3.97;;;666.10;1331.20;;;;;;5029261;28;20360;-61
2023/05/06 12:37:08;;;;;;;4.80;4.15;;;665.90;1331.20;;;;;;5029049;28;20444;-62